createdAt,value
2023-03-16T00:02:12.609Z,10.10
2023-03-16T00:04:48.032Z,10.93
2023-03-16T00:07:17.724Z,11.63
2023-03-16T00:09:47.368Z,11.93
2023-03-16T00:12:22.294Z,12.95
2023-03-16T00:14:53.817Z,12.80
2023-03-16T00:17:23.564Z,13.68
2023-03-16T00:19:55.634Z,13.15
2023-03-16T00:22:32.113Z,13.25
2023-03-16T00:25:01.474Z,12.18
2023-03-16T00:27:31.835Z,11.27
2023-03-16T00:30:03.390Z,11.43
2023-03-16T00:32:36.823Z,11.68
2023-03-16T00:35:17.159Z,10.65
2023-03-16T00:37:46.582Z,10.88
2023-03-16T00:40:16.450Z,10.65
2023-03-16T00:42:54.694Z,10.75
2023-03-16T00:45:25.776Z,10.95
2023-03-16T00:47:55.461Z,11.00
2023-03-16T00:50:24.633Z,10.82
2023-03-16T00:52:54.616Z,10.90
2023-03-16T00:55:23.763Z,11.10
2023-03-16T00:57:53.004Z,11.15
2023-03-16T01:00:26.216Z,10.93
2023-03-16T01:02:57.619Z,11.35
2023-03-16T01:05:36.963Z,11.20
2023-03-16T01:08:06.894Z,11.15
2023-03-16T01:10:36.744Z,10.30
2023-03-16T01:13:12.711Z,10.98
2023-03-16T01:15:42.502Z,10.55
2023-03-16T01:18:14.316Z,11.45
2023-03-16T01:20:50.625Z,10.20
2023-03-16T01:25:52.803Z,9.90
2023-03-16T01:28:29.320Z,9.35
2023-03-16T01:31:04.806Z,10.00
2023-03-16T01:36:17.618Z,10.38
2023-03-16T01:39:03.683Z,9.50
2023-03-16T01:41:43.834Z,9.90
2023-03-16T01:44:20.622Z,9.80
2023-03-16T01:46:50.041Z,9.35
2023-03-16T01:49:32.421Z,9.35
2023-03-16T01:52:07.433Z,9.15
2023-03-16T01:57:18.556Z,9.48
2023-03-16T01:59:53.384Z,9.18
2023-03-16T02:02:25.848Z,9.10
2023-03-16T02:05:03.767Z,8.93
2023-03-16T02:07:37.969Z,8.63
2023-03-16T02:10:14.628Z,8.40
2023-03-16T02:12:45.486Z,7.68
2023-03-16T02:15:16.560Z,9.13
2023-03-16T02:17:47.654Z,8.52
2023-03-16T02:20:30.686Z,8.25
2023-03-16T02:23:00.761Z,8.57
2023-03-16T02:25:42.294Z,8.63
2023-03-16T02:28:20.886Z,7.28
2023-03-16T02:30:58.546Z,8.10
2023-03-16T02:33:28.695Z,7.78
2023-03-16T02:35:58.020Z,7.43
2023-03-16T02:38:28.428Z,7.80
2023-03-16T02:41:01.592Z,7.60
2023-03-16T02:43:39.398Z,7.68
2023-03-16T02:46:35.276Z,7.80
2023-03-16T02:49:09.625Z,7.63
2023-03-16T02:51:40.046Z,7.32
2023-03-16T02:54:09.578Z,6.78
2023-03-16T02:56:39.128Z,7.32
2023-03-16T02:59:08.575Z,7.47
2023-03-16T03:01:40.684Z,7.55
2023-03-16T03:04:10.762Z,8.05
2023-03-16T03:06:39.982Z,7.07
2023-03-16T03:09:11.062Z,7.25
2023-03-16T03:11:40.694Z,6.90
2023-03-16T03:16:51.926Z,6.88
2023-03-16T03:21:50.539Z,7.10
2023-03-16T03:24:27.689Z,7.35
2023-03-16T03:26:56.929Z,8.05
2023-03-16T03:29:34.384Z,7.40
2023-03-16T03:32:06.308Z,7.60
2023-03-16T03:34:42.012Z,7.18
2023-03-16T03:37:11.398Z,7.85
2023-03-16T03:39:43.066Z,7.70
2023-03-16T03:42:13.334Z,8.85
2023-03-16T03:44:52.662Z,7.93
2023-03-16T03:47:24.111Z,7.70
2023-03-16T03:49:53.573Z,7.30
2023-03-16T03:52:22.855Z,7.70
2023-03-16T03:54:52.115Z,7.20
2023-03-16T03:57:22.005Z,8.10
2023-03-16T03:59:52.125Z,7.63
2023-03-16T04:02:48.456Z,7.03
2023-03-16T04:05:27.337Z,7.38
2023-03-16T04:08:02.224Z,7.53
2023-03-16T04:10:32.902Z,7.18
2023-03-16T04:13:02.982Z,7.15
2023-03-16T04:15:38.012Z,7.22
2023-03-16T04:18:25.579Z,6.82
2023-03-16T04:20:55.328Z,6.88
2023-03-16T04:23:34.825Z,6.57
2023-03-16T04:26:05.170Z,7.18
2023-03-16T04:28:40.199Z,6.25
2023-03-16T04:31:12.461Z,6.93
2023-03-16T04:33:47.564Z,7.47
2023-03-16T04:36:17.068Z,7.43
2023-03-16T04:38:46.858Z,7.38
2023-03-16T04:41:16.891Z,7.97
2023-03-16T04:43:54.599Z,8.82
2023-03-16T04:46:27.185Z,8.00
2023-03-16T04:48:58.849Z,7.50
2023-03-16T04:51:30.903Z,7.93
2023-03-16T04:54:10.834Z,7.55
2023-03-16T04:56:46.366Z,7.80
2023-03-16T04:59:29.307Z,6.70
2023-03-16T05:02:09.223Z,6.95
2023-03-16T05:04:41.051Z,7.80
2023-03-16T05:07:13.651Z,6.78
2023-03-16T05:09:47.129Z,7.60
2023-03-16T05:12:16.991Z,6.80
2023-03-16T05:14:47.883Z,6.50
2023-03-16T05:20:18.291Z,6.40
2023-03-16T05:22:58.223Z,6.10
2023-03-16T05:25:31.177Z,6.10
2023-03-16T05:28:05.007Z,6.72
2023-03-16T05:30:56.062Z,5.53
2023-03-16T05:33:30.609Z,5.80
2023-03-16T05:36:09.125Z,6.00
2023-03-16T05:38:41.610Z,6.15
2023-03-16T05:41:24.828Z,6.38
2023-03-16T05:44:05.754Z,6.35
2023-03-16T05:47:04.358Z,6.00
2023-03-16T05:49:35.936Z,6.53
2023-03-16T05:52:12.726Z,6.97
2023-03-16T05:54:47.104Z,6.82
2023-03-16T05:57:17.182Z,6.82
2023-03-16T05:59:48.649Z,6.82
2023-03-16T06:02:18.244Z,6.72
2023-03-16T06:04:47.828Z,6.70
2023-03-16T06:07:24.119Z,7.72
2023-03-16T06:09:56.652Z,7.93
2023-03-16T06:12:34.030Z,7.25
2023-03-16T06:15:03.266Z,8.73
2023-03-16T06:17:32.843Z,7.93
2023-03-16T06:20:10.575Z,7.68
2023-03-16T06:22:44.598Z,7.03
2023-03-16T06:25:15.750Z,6.75
2023-03-16T06:27:48.721Z,6.38
2023-03-16T06:30:29.889Z,6.97
2023-03-16T06:32:59.826Z,6.43
2023-03-16T06:35:29.119Z,6.30
2023-03-16T06:38:29.745Z,6.10
2023-03-16T06:41:03.927Z,6.72
2023-03-16T06:43:36.573Z,6.80
2023-03-16T06:46:06.276Z,6.65
2023-03-16T06:48:35.659Z,6.95
2023-03-16T06:51:11.075Z,7.25
2023-03-16T06:53:42.252Z,7.28
2023-03-16T06:56:11.612Z,7.03
2023-03-16T07:01:23.705Z,6.50
2023-03-16T07:03:52.877Z,6.93
2023-03-16T07:06:26.840Z,6.75
2023-03-16T07:08:58.772Z,6.53
2023-03-16T07:11:30.241Z,7.15
2023-03-16T07:14:01.205Z,7.20
2023-03-16T07:16:32.568Z,6.68
2023-03-16T07:19:05.091Z,6.75
2023-03-16T07:21:42.372Z,6.35
2023-03-16T07:24:18.619Z,6.20
2023-03-16T07:26:53.391Z,6.65
2023-03-16T07:29:33.735Z,6.57
2023-03-16T07:32:05.033Z,7.07
2023-03-16T07:34:39.279Z,7.65
2023-03-16T07:37:25.090Z,8.02
2023-03-16T07:40:00.652Z,7.22
2023-03-16T07:42:29.943Z,7.32
2023-03-16T07:45:09.171Z,7.60
2023-03-16T07:47:39.233Z,7.47
2023-03-16T07:50:18.966Z,6.50
2023-03-16T07:52:50.294Z,7.63
2023-03-16T07:55:26.628Z,7.40
2023-03-16T07:57:56.945Z,7.05
2023-03-16T08:00:32.453Z,8.07
2023-03-16T08:05:38.050Z,7.40
2023-03-16T08:08:23.245Z,7.90
2023-03-16T08:10:56.594Z,10.90
2023-03-16T08:13:35.128Z,10.55
2023-03-16T08:16:05.073Z,11.68
2023-03-16T08:18:41.448Z,10.00
2023-03-16T08:21:11.528Z,8.65
2023-03-16T08:23:47.058Z,8.25
2023-03-16T08:26:19.221Z,8.20
2023-03-16T08:28:56.782Z,8.35
2023-03-16T08:31:26.329Z,8.65
2023-03-16T08:34:09.651Z,8.02
2023-03-16T08:36:43.988Z,8.70
2023-03-16T08:39:15.396Z,8.77
2023-03-16T08:41:50.790Z,8.55
2023-03-16T08:44:39.644Z,9.10
2023-03-16T08:47:10.148Z,9.13
2023-03-16T08:49:46.580Z,9.02
2023-03-16T08:52:18.435Z,9.23
2023-03-16T08:55:03.065Z,9.90
2023-03-16T08:57:41.353Z,9.98
2023-03-16T09:00:13.520Z,10.05
2023-03-16T09:02:43.445Z,9.10
2023-03-16T09:05:14.427Z,10.27
2023-03-16T09:07:44.169Z,9.18
2023-03-16T09:10:20.680Z,9.93
2023-03-16T09:12:52.326Z,9.95
2023-03-16T09:15:23.494Z,10.27
2023-03-16T09:17:53.967Z,9.65
2023-03-16T09:20:26.910Z,10.05
2023-03-16T09:23:04.309Z,11.10
2023-03-16T09:28:10.943Z,10.23
2023-03-16T09:30:45.806Z,9.85
2023-03-16T09:33:15.075Z,10.18
2023-03-16T09:35:51.654Z,10.40
2023-03-16T09:38:21.350Z,10.18
2023-03-16T09:40:57.611Z,10.65
2023-03-16T09:43:48.935Z,9.95
2023-03-16T09:46:28.617Z,9.23
2023-03-16T09:49:04.585Z,8.85
2023-03-16T09:51:51.663Z,8.88
2023-03-16T09:54:27.290Z,9.32
2023-03-16T09:57:03.289Z,9.00
2023-03-16T09:59:34.411Z,9.20
2023-03-16T10:02:35.293Z,9.80
2023-03-16T10:05:10.400Z,10.45
2023-03-16T10:07:52.246Z,10.38
2023-03-16T10:10:40.962Z,11.30
2023-03-16T10:13:19.531Z,12.07
2023-03-16T10:15:52.999Z,12.02
2023-03-16T10:18:24.273Z,11.25
2023-03-16T10:20:55.290Z,11.63
2023-03-16T10:23:27.283Z,12.00
2023-03-16T10:25:58.043Z,13.13
2023-03-16T10:31:14.721Z,13.93
2023-03-16T10:33:44.385Z,11.85
2023-03-16T10:36:18.933Z,13.27
2023-03-16T10:38:54.873Z,11.25
2023-03-16T10:41:27.550Z,12.13
2023-03-16T10:44:04.473Z,11.93
2023-03-16T10:46:40.467Z,12.27
2023-03-16T10:49:27.159Z,12.60
2023-03-16T10:52:08.669Z,13.68
2023-03-16T10:54:40.965Z,13.35
2023-03-16T10:57:21.094Z,14.63
2023-03-16T11:00:15.965Z,13.88
2023-03-16T11:02:53.822Z,12.82
2023-03-16T11:05:31.923Z,12.75
2023-03-16T11:08:03.595Z,13.13
2023-03-16T11:10:40.490Z,13.25
2023-03-16T11:13:24.234Z,12.93
2023-03-16T11:16:01.225Z,13.25
2023-03-16T11:18:47.024Z,13.50
2023-03-16T11:21:32.155Z,12.52
2023-03-16T11:24:04.602Z,11.55
2023-03-16T11:26:48.945Z,10.77
2023-03-16T11:29:25.273Z,9.90
2023-03-16T11:31:58.219Z,10.20
2023-03-16T11:34:31.595Z,11.32
2023-03-16T11:37:12.900Z,10.55
2023-03-16T11:39:52.295Z,10.27
2023-03-16T11:42:35.573Z,9.80
2023-03-16T11:45:20.715Z,10.35
2023-03-16T11:48:12.457Z,10.88
2023-03-16T11:50:59.363Z,11.35
2023-03-16T11:53:48.272Z,10.50
2023-03-16T11:56:24.982Z,12.75
2023-03-16T11:59:22.316Z,11.18
2023-03-16T12:02:04.691Z,10.68
2023-03-16T12:04:48.111Z,10.95
2023-03-16T12:07:35.502Z,9.70
2023-03-16T12:10:20.014Z,9.07
2023-03-16T12:13:03.757Z,8.45
2023-03-16T12:15:38.038Z,9.05
2023-03-16T12:18:15.834Z,8.35
2023-03-16T12:20:51.927Z,8.70
2023-03-16T12:23:29.249Z,8.63
2023-03-16T12:26:01.366Z,10.18
2023-03-16T12:28:33.022Z,9.50
2023-03-16T12:31:15.725Z,9.20
2023-03-16T12:34:01.542Z,9.85
2023-03-16T12:37:00.629Z,10.25
2023-03-16T12:40:07.224Z,10.52
2023-03-16T12:43:11.219Z,10.43
2023-03-16T12:52:57.925Z,8.20
2023-03-16T12:55:46.438Z,8.55
2023-03-16T12:58:24.617Z,7.78
2023-03-16T13:01:00.501Z,8.20
2023-03-16T13:03:30.903Z,8.77
2023-03-16T13:06:03.053Z,9.30
2023-03-16T13:08:45.685Z,9.55
2023-03-16T13:11:16.117Z,9.52
2023-03-16T13:14:05.995Z,9.60
2023-03-16T13:16:38.126Z,9.85
2023-03-16T13:19:27.937Z,11.43
2023-03-16T13:22:06.546Z,9.07
2023-03-16T13:24:41.860Z,10.75
2023-03-16T13:27:28.972Z,10.02
2023-03-16T13:30:01.951Z,10.55
2023-03-16T13:32:36.206Z,11.02
2023-03-16T13:35:11.776Z,11.23
2023-03-16T13:37:44.326Z,10.27
2023-03-16T13:40:24.268Z,11.23
2023-03-16T13:42:55.878Z,12.00
2023-03-16T13:45:34.771Z,10.27
2023-03-16T13:48:05.102Z,14.40
2023-03-16T13:50:35.750Z,17.23
2023-03-16T13:53:08.384Z,15.40
2023-03-16T13:55:47.390Z,13.27
2023-03-16T13:58:25.498Z,10.27
2023-03-16T14:01:01.221Z,11.40
2023-03-16T14:03:35.591Z,8.95
2023-03-16T14:06:05.856Z,8.65
2023-03-16T14:08:35.696Z,9.60
2023-03-16T14:11:07.044Z,10.85
2023-03-16T14:13:38.906Z,9.75
2023-03-16T14:16:18.030Z,10.02
2023-03-16T14:18:49.381Z,12.18
2023-03-16T14:21:21.467Z,12.68
2023-03-16T14:23:54.994Z,10.40
2023-03-16T14:26:26.687Z,14.40
2023-03-16T14:28:57.992Z,13.68
2023-03-16T14:31:35.507Z,14.10
2023-03-16T14:34:08.461Z,14.25
2023-03-16T14:36:43.035Z,17.15
2023-03-16T14:39:13.639Z,19.88
2023-03-16T14:41:45.417Z,19.13
2023-03-16T14:44:27.607Z,20.17
2023-03-16T14:46:59.050Z,25.80
2023-03-16T14:49:31.347Z,24.10
2023-03-16T14:52:08.060Z,25.17
2023-03-16T14:54:37.460Z,31.98
2023-03-16T14:57:08.989Z,31.38
2023-03-16T14:59:38.214Z,26.17
2023-03-16T15:02:18.386Z,34.00
2023-03-16T15:04:49.442Z,29.08
2023-03-16T15:07:29.244Z,32.00
2023-03-16T15:10:05.125Z,30.58
2023-03-16T15:12:37.679Z,29.00
2023-03-16T15:15:17.712Z,30.40
2023-03-16T15:17:47.883Z,30.23
2023-03-16T15:20:19.809Z,30.08
2023-03-16T15:25:29.934Z,28.60
2023-03-16T15:28:01.860Z,31.27
2023-03-16T15:30:32.188Z,30.77
2023-03-16T15:33:07.166Z,27.60
2023-03-16T15:35:38.302Z,23.38
2023-03-16T15:41:02.749Z,20.65
2023-03-16T15:43:34.172Z,21.55
2023-03-16T15:46:04.723Z,23.33
2023-03-16T15:48:34.602Z,24.00
2023-03-16T15:51:08.238Z,21.67
2023-03-16T15:53:40.945Z,20.88
2023-03-16T15:56:12.800Z,20.40
2023-03-16T15:58:52.409Z,23.73
2023-03-16T16:01:25.084Z,23.60
2023-03-16T16:03:59.584Z,25.75
2023-03-16T16:06:29.970Z,21.63
2023-03-16T16:09:06.101Z,27.15
2023-03-16T16:11:35.447Z,23.85
2023-03-16T16:14:11.989Z,23.55
2023-03-16T16:16:41.644Z,20.77
2023-03-16T16:19:15.216Z,22.20
2023-03-16T16:21:45.927Z,25.77
2023-03-16T16:24:15.186Z,26.17
2023-03-16T16:26:54.804Z,25.48
2023-03-16T16:29:29.917Z,23.70
2023-03-16T16:31:59.280Z,24.35
2023-03-16T16:34:28.802Z,24.20
2023-03-16T16:37:08.226Z,22.45
2023-03-16T16:39:40.066Z,23.13
2023-03-16T16:42:18.023Z,22.23
2023-03-16T16:44:49.168Z,21.13
2023-03-16T16:47:22.414Z,20.73
2023-03-16T16:49:52.251Z,22.58
2023-03-16T16:52:22.202Z,20.48
2023-03-16T16:54:51.345Z,19.27
2023-03-16T16:57:21.986Z,19.23
2023-03-16T16:59:53.126Z,17.85
2023-03-16T17:02:33.156Z,17.10
2023-03-16T17:05:09.027Z,14.43
2023-03-16T17:07:38.748Z,16.65
2023-03-16T17:10:09.359Z,15.15
2023-03-16T17:12:43.575Z,14.10
2023-03-16T17:15:29.022Z,14.32
2023-03-16T17:18:08.852Z,18.60
2023-03-16T17:20:38.514Z,15.63
2023-03-16T17:23:28.857Z,17.80
2023-03-16T17:25:59.858Z,19.92
2023-03-16T17:28:30.851Z,15.43
2023-03-16T17:31:02.194Z,15.27
2023-03-16T17:33:31.556Z,16.85
2023-03-16T17:36:01.567Z,17.13
2023-03-16T17:38:30.934Z,15.70
2023-03-16T17:41:00.258Z,20.73
2023-03-16T17:43:31.437Z,15.00
2023-03-16T17:46:04.959Z,14.88
2023-03-16T17:48:40.761Z,17.45
2023-03-16T17:51:14.787Z,14.80
2023-03-16T17:53:48.985Z,15.00
2023-03-16T17:56:20.480Z,14.43
2023-03-16T17:58:58.907Z,14.55
2023-03-16T18:01:35.509Z,13.65
2023-03-16T18:06:50.874Z,14.48
2023-03-16T18:09:27.008Z,13.98
2023-03-16T18:11:57.274Z,12.98
2023-03-16T18:14:36.298Z,13.82
2023-03-16T18:17:17.665Z,14.90
2023-03-16T18:19:48.451Z,14.20
2023-03-16T18:22:19.793Z,13.80
2023-03-16T18:25:00.577Z,14.65
2023-03-16T18:27:29.856Z,14.38
2023-03-16T18:29:59.565Z,15.55
2023-03-16T18:32:32.061Z,14.10
2023-03-16T18:35:03.834Z,15.32
2023-03-16T18:37:38.569Z,16.15
2023-03-16T18:40:12.384Z,14.50
2023-03-16T18:42:48.446Z,14.85
2023-03-16T18:45:18.511Z,14.95
2023-03-16T18:47:58.271Z,14.57
2023-03-16T18:50:30.470Z,15.23
2023-03-16T18:52:59.752Z,15.00
2023-03-16T18:55:35.260Z,14.07
2023-03-16T18:58:13.241Z,15.80
2023-03-16T19:00:42.629Z,14.85
2023-03-16T19:03:23.254Z,14.93
2023-03-16T19:05:52.662Z,14.15
2023-03-16T19:08:22.961Z,14.93
2023-03-16T19:11:05.213Z,14.63
2023-03-16T19:13:34.366Z,12.75
2023-03-16T19:16:04.712Z,12.65
2023-03-16T19:18:41.649Z,13.68
2023-03-16T19:21:14.743Z,9.70
2023-03-16T19:23:55.930Z,14.05
2023-03-16T19:26:25.395Z,13.48
2023-03-16T19:28:54.616Z,12.82
2023-03-16T19:31:32.340Z,11.98
2023-03-16T19:34:03.599Z,13.02
2023-03-16T19:36:44.155Z,11.88
2023-03-16T19:39:15.077Z,11.93
2023-03-16T19:44:24.856Z,11.43
2023-03-16T19:47:04.224Z,10.38
2023-03-16T19:49:35.467Z,9.35
2023-03-16T19:52:04.633Z,10.52
2023-03-16T19:54:34.615Z,11.18
2023-03-16T19:57:18.633Z,10.57
2023-03-16T19:59:51.009Z,10.18
2023-03-16T20:02:29.019Z,9.40
2023-03-16T20:05:00.236Z,9.40
2023-03-16T20:07:37.695Z,10.38
2023-03-16T20:10:07.575Z,8.55
2023-03-16T20:12:38.271Z,9.65
2023-03-16T20:15:08.285Z,5.60
2023-03-16T20:17:37.872Z,10.50
2023-03-16T20:20:21.894Z,8.55
2023-03-16T20:22:52.026Z,6.72
2023-03-16T20:25:34.743Z,8.05
2023-03-16T20:28:04.839Z,8.95
2023-03-16T20:30:34.277Z,7.57
2023-03-16T20:33:08.432Z,7.05
2023-03-16T20:38:15.639Z,7.22
2023-03-16T20:40:46.777Z,6.43
2023-03-16T20:43:27.220Z,7.35
2023-03-16T20:46:05.533Z,7.05
2023-03-16T20:48:35.107Z,6.28
2023-03-16T20:51:07.958Z,4.28
2023-03-16T20:53:37.486Z,6.68
2023-03-16T20:56:07.354Z,5.15
2023-03-16T20:58:37.595Z,6.82
2023-03-16T21:01:17.437Z,5.25
2023-03-16T21:03:48.222Z,5.20
2023-03-16T21:06:29.391Z,3.85
2023-03-16T21:09:00.759Z,4.60
2023-03-16T21:11:36.252Z,4.45
2023-03-16T21:14:07.422Z,5.75
2023-03-16T21:16:36.779Z,6.18
2023-03-16T21:19:13.828Z,4.35
2023-03-16T21:21:45.974Z,6.30
2023-03-16T21:24:15.230Z,5.82
2023-03-16T21:26:46.993Z,5.55
2023-03-16T21:31:54.882Z,4.95
2023-03-16T21:34:32.743Z,5.30
2023-03-16T21:37:03.917Z,4.45
2023-03-16T21:39:38.271Z,5.47
2023-03-16T21:42:07.588Z,4.97
2023-03-16T21:44:37.202Z,4.57
2023-03-16T21:47:24.054Z,4.90
2023-03-16T21:49:53.433Z,7.45
2023-03-16T21:52:27.761Z,4.47
2023-03-16T21:55:02.182Z,5.28
2023-03-16T21:57:37.048Z,6.50
2023-03-16T22:00:07.224Z,4.45
2023-03-16T22:02:37.210Z,6.20
2023-03-16T22:05:26.595Z,6.50
2023-03-16T22:08:03.456Z,5.50
2023-03-16T22:10:32.735Z,5.28
2023-03-16T22:13:01.784Z,7.28
2023-03-16T22:15:31.525Z,5.45
2023-03-16T22:18:03.896Z,4.47
2023-03-16T22:20:33.452Z,7.90
2023-03-16T22:23:04.541Z,4.97
2023-03-16T22:25:33.767Z,5.03
2023-03-16T22:28:03.767Z,7.25
2023-03-16T22:30:33.227Z,6.80
2023-03-16T22:33:02.567Z,5.00
2023-03-16T22:35:35.053Z,6.95
2023-03-16T22:38:08.688Z,3.40
2023-03-16T22:40:39.700Z,4.60
2023-03-16T22:43:16.300Z,6.93
2023-03-16T22:45:45.804Z,7.05
2023-03-16T22:48:19.995Z,7.28
2023-03-16T22:50:49.276Z,7.40
2023-03-16T22:53:29.929Z,5.78
2023-03-16T22:55:59.297Z,5.57
2023-03-16T22:58:39.720Z,5.03
2023-03-16T23:01:17.691Z,4.85
2023-03-16T23:03:47.535Z,4.07
2023-03-16T23:06:21.680Z,5.75
2023-03-16T23:08:54.035Z,4.68
2023-03-16T23:11:25.845Z,6.30
2023-03-16T23:13:56.356Z,7.15
2023-03-16T23:16:28.779Z,4.82
2023-03-16T23:19:04.412Z,5.55
2023-03-16T23:21:40.049Z,5.55
2023-03-16T23:24:16.320Z,4.43
2023-03-16T23:26:45.871Z,4.53
2023-03-16T23:29:16.075Z,4.38
2023-03-16T23:31:45.353Z,4.50
2023-03-16T23:34:15.909Z,4.32
2023-03-16T23:36:45.463Z,5.22
2023-03-16T23:39:16.601Z,6.20
2023-03-16T23:47:06.653Z,3.95
2023-03-16T23:49:38.460Z,4.88
2023-03-16T23:54:38.915Z,4.75
2023-03-16T23:57:13.217Z,4.35
2023-03-16T23:59:42.304Z,4.63
